createdAt,value
2022-11-27T00:01:01.077Z,23.42
2022-11-27T00:04:06.601Z,23.93
2022-11-27T00:07:12.603Z,25.00
2022-11-27T00:10:16.530Z,23.87
2022-11-27T00:13:19.376Z,25.95
2022-11-27T00:16:23.382Z,23.42
2022-11-27T00:19:26.199Z,23.70
2022-11-27T00:22:29.078Z,22.77
2022-11-27T00:25:33.092Z,23.05
2022-11-27T00:28:38.277Z,23.85
2022-11-27T00:31:41.047Z,24.02
2022-11-27T00:34:45.473Z,24.60
2022-11-27T00:37:49.672Z,24.50
2022-11-27T00:40:52.525Z,23.48
2022-11-27T00:43:56.027Z,24.63
2022-11-27T00:46:58.856Z,26.15
2022-11-27T00:50:02.273Z,25.23
2022-11-27T00:53:05.345Z,23.70
2022-11-27T00:56:10.368Z,26.98
2022-11-27T00:59:14.990Z,25.23
2022-11-27T01:02:18.017Z,24.63
2022-11-27T01:05:21.186Z,25.63
2022-11-27T01:08:23.765Z,24.53
2022-11-27T01:11:31.988Z,25.15
2022-11-27T01:14:35.029Z,26.00
2022-11-27T01:17:39.407Z,25.83
2022-11-27T01:20:43.193Z,25.47
2022-11-27T01:23:46.755Z,24.70
2022-11-27T01:26:50.711Z,26.27
2022-11-27T01:29:54.098Z,25.98
2022-11-27T01:32:56.545Z,24.92
2022-11-27T01:36:02.471Z,25.47
2022-11-27T01:39:06.269Z,23.90
2022-11-27T01:42:12.537Z,26.05
2022-11-27T01:45:18.214Z,24.98
2022-11-27T01:48:21.651Z,24.90
2022-11-27T01:51:24.764Z,26.03
2022-11-27T01:54:33.092Z,25.55
2022-11-27T01:57:48.848Z,25.65
2022-11-27T02:00:53.133Z,24.30
2022-11-27T02:03:59.182Z,23.67
2022-11-27T02:07:02.686Z,23.93
2022-11-27T02:10:07.147Z,23.17
2022-11-27T02:13:29.629Z,23.35
2022-11-27T02:16:59.424Z,24.33
2022-11-27T02:20:33.479Z,25.02
2022-11-27T02:23:54.331Z,24.17
2022-11-27T02:27:21.253Z,25.52
2022-11-27T02:30:24.207Z,25.73
2022-11-27T02:33:29.335Z,24.58
2022-11-27T02:36:37.898Z,26.37
2022-11-27T02:40:01.044Z,27.20
2022-11-27T02:43:12.475Z,23.80
2022-11-27T02:46:19.047Z,24.65
2022-11-27T02:49:22.673Z,23.55
2022-11-27T02:52:28.617Z,24.60
2022-11-27T02:55:35.525Z,22.90
2022-11-27T02:58:40.024Z,24.15
2022-11-27T03:01:46.642Z,24.33
2022-11-27T03:04:54.146Z,26.25
2022-11-27T03:08:05.728Z,23.75
2022-11-27T03:11:12.387Z,25.63
2022-11-27T03:14:16.236Z,25.83
2022-11-27T03:17:34.753Z,26.27
2022-11-27T03:20:41.488Z,25.30
2022-11-27T03:23:44.479Z,24.45
2022-11-27T03:26:47.687Z,24.47
2022-11-27T03:29:56.726Z,24.47
2022-11-27T03:32:59.540Z,26.98
2022-11-27T03:36:02.499Z,24.87
2022-11-27T03:39:05.733Z,25.23
2022-11-27T03:42:27.263Z,24.77
2022-11-27T03:45:38.245Z,23.17
2022-11-27T03:48:58.676Z,23.15
2022-11-27T03:52:17.959Z,25.00
2022-11-27T03:55:30.132Z,24.10
2022-11-27T03:58:32.586Z,22.93
2022-11-27T04:01:36.251Z,23.93
2022-11-27T04:04:40.706Z,23.67
2022-11-27T04:07:43.937Z,24.67
2022-11-27T04:10:47.819Z,23.85
2022-11-27T04:13:52.293Z,23.97
2022-11-27T04:16:56.102Z,25.70
2022-11-27T04:20:01.639Z,24.35
2022-11-27T04:23:07.507Z,25.40
2022-11-27T04:26:10.654Z,24.58
2022-11-27T04:29:14.028Z,25.23
2022-11-27T04:32:17.587Z,26.43
2022-11-27T04:35:21.036Z,25.48
2022-11-27T04:38:26.326Z,24.15
2022-11-27T04:41:29.865Z,26.40
2022-11-27T04:44:33.390Z,26.70
2022-11-27T04:47:36.109Z,25.73
2022-11-27T04:50:42.234Z,26.05
2022-11-27T04:53:47.480Z,24.63
2022-11-27T04:56:50.938Z,25.05
2022-11-27T04:59:55.726Z,26.03
2022-11-27T05:02:58.297Z,24.33
2022-11-27T05:06:01.130Z,24.10
2022-11-27T05:09:03.814Z,24.48
2022-11-27T05:12:07.200Z,24.30
2022-11-27T05:15:10.430Z,25.87
2022-11-27T05:18:15.331Z,25.48
2022-11-27T05:21:18.074Z,25.00
2022-11-27T05:24:25.833Z,24.70
2022-11-27T05:27:28.804Z,24.55
2022-11-27T05:30:34.577Z,24.40
2022-11-27T05:33:37.414Z,24.70
2022-11-27T05:36:40.625Z,25.17
2022-11-27T05:39:44.487Z,25.35
2022-11-27T05:42:48.085Z,28.12
2022-11-27T05:45:51.432Z,28.07
2022-11-27T05:48:56.097Z,26.43
2022-11-27T05:51:59.691Z,26.45
2022-11-27T05:55:04.328Z,27.27
2022-11-27T05:58:07.445Z,26.02
2022-11-27T06:01:14.529Z,26.23
2022-11-27T06:04:18.814Z,25.93
2022-11-27T06:07:23.093Z,26.33
2022-11-27T06:10:28.377Z,28.45
2022-11-27T06:13:32.530Z,28.17
2022-11-27T06:16:36.968Z,27.47
2022-11-27T06:19:39.662Z,26.23
2022-11-27T06:22:44.057Z,26.95
2022-11-27T06:25:48.499Z,27.95
2022-11-27T06:28:52.073Z,27.05
2022-11-27T06:31:55.004Z,27.10
2022-11-27T06:34:58.026Z,27.13
2022-11-27T06:38:02.318Z,26.17
2022-11-27T06:41:16.292Z,28.23
2022-11-27T06:44:19.310Z,26.85
2022-11-27T06:47:24.161Z,26.27
2022-11-27T06:50:29.484Z,25.97
2022-11-27T06:53:35.489Z,25.30
2022-11-27T06:56:39.119Z,25.27
2022-11-27T06:59:42.765Z,26.70
2022-11-27T07:02:53.119Z,26.13
2022-11-27T07:06:03.345Z,25.70
2022-11-27T07:09:09.163Z,24.23
2022-11-27T07:12:12.517Z,28.90
2022-11-27T07:15:18.229Z,27.15
2022-11-27T07:18:29.261Z,25.40
2022-11-27T07:21:39.521Z,25.70
2022-11-27T07:24:50.146Z,25.40
2022-11-27T07:27:56.154Z,25.02
2022-11-27T07:30:59.673Z,22.08
2022-11-27T07:34:15.999Z,24.10
2022-11-27T07:37:30.024Z,23.23
2022-11-27T07:40:41.181Z,25.90
2022-11-27T07:43:46.968Z,26.20
2022-11-27T07:46:51.353Z,25.60
2022-11-27T07:49:57.127Z,28.60
2022-11-27T07:53:12.117Z,25.63
2022-11-27T07:56:22.619Z,25.27
2022-11-27T07:59:26.655Z,25.95
2022-11-27T08:02:42.085Z,24.83
2022-11-27T08:05:50.147Z,24.40
2022-11-27T08:09:03.317Z,24.53
2022-11-27T08:12:17.075Z,24.60
2022-11-27T08:15:26.067Z,24.35
2022-11-27T08:18:32.639Z,25.12
2022-11-27T08:21:43.056Z,23.90
2022-11-27T08:24:48.296Z,23.80
2022-11-27T08:27:53.088Z,22.52
2022-11-27T08:31:06.447Z,23.75
2022-11-27T08:34:15.926Z,25.70
2022-11-27T08:37:22.333Z,23.20
2022-11-27T08:40:26.353Z,22.77
2022-11-27T08:43:30.661Z,23.67
2022-11-27T08:46:43.064Z,25.92
2022-11-27T08:49:54.337Z,24.73
2022-11-27T08:53:00.024Z,25.30
2022-11-27T08:56:09.105Z,23.83
2022-11-27T08:59:13.130Z,26.52
2022-11-27T09:02:21.251Z,23.35
2022-11-27T09:05:25.247Z,23.75
2022-11-27T09:08:43.010Z,24.33
2022-11-27T09:11:49.117Z,21.63
2022-11-27T09:14:52.007Z,22.67
2022-11-27T09:18:03.025Z,21.60
2022-11-27T09:21:17.432Z,20.67
2022-11-27T09:24:33.169Z,21.43
2022-11-27T09:27:38.503Z,21.13
2022-11-27T09:30:43.233Z,19.45
2022-11-27T09:33:59.561Z,21.00
2022-11-27T09:37:11.015Z,19.92
2022-11-27T09:40:17.991Z,20.33
2022-11-27T09:43:36.778Z,19.67
2022-11-27T09:46:42.696Z,20.58
2022-11-27T09:49:55.741Z,21.60
2022-11-27T09:53:08.471Z,21.33
2022-11-27T09:56:16.186Z,22.07
2022-11-27T09:59:44.351Z,23.67
2022-11-27T10:02:49.885Z,21.23
2022-11-27T10:06:15.067Z,20.90
2022-11-27T10:09:39.169Z,22.58
2022-11-27T10:13:13.192Z,22.37
2022-11-27T10:16:32.122Z,21.87
2022-11-27T10:19:48.611Z,22.70
2022-11-27T10:23:32.047Z,21.97
2022-11-27T10:26:45.331Z,22.15
2022-11-27T10:29:53.843Z,22.62
2022-11-27T10:33:02.076Z,22.25
2022-11-27T10:36:15.395Z,22.23
2022-11-27T10:39:43.114Z,23.40
2022-11-27T10:43:19.129Z,22.35
2022-11-27T10:46:30.312Z,22.05
2022-11-27T10:49:41.094Z,22.70
2022-11-27T10:52:52.542Z,25.57
2022-11-27T10:56:22.102Z,30.10
2022-11-27T10:59:34.491Z,34.15
2022-11-27T11:02:40.095Z,24.50
2022-11-27T11:09:40.208Z,21.57
2022-11-27T11:12:55.045Z,23.23
2022-11-27T11:16:16.108Z,23.40
2022-11-27T11:19:34.397Z,22.73
2022-11-27T11:22:49.224Z,21.45
2022-11-27T11:25:56.837Z,24.87
2022-11-27T11:29:10.078Z,26.47
2022-11-27T11:32:36.082Z,21.62
2022-11-27T11:35:42.387Z,20.60
2022-11-27T11:38:55.206Z,22.42
2022-11-27T11:41:59.486Z,27.23
2022-11-27T11:45:15.373Z,25.47
2022-11-27T11:48:27.114Z,22.45
2022-11-27T11:51:53.162Z,28.40
2022-11-27T11:55:20.448Z,29.63
2022-11-27T11:58:51.384Z,25.50
2022-11-27T12:02:23.428Z,27.27
2022-11-27T12:05:55.469Z,27.98
2022-11-27T12:09:10.858Z,24.75
2022-11-27T12:13:01.176Z,25.35
2022-11-27T12:16:23.224Z,22.27
2022-11-27T12:19:35.303Z,24.10
2022-11-27T12:22:48.183Z,25.62
2022-11-27T12:26:05.314Z,25.40
2022-11-27T12:29:50.352Z,25.52
2022-11-27T12:33:22.127Z,27.00
2022-11-27T12:36:54.925Z,24.03
2022-11-27T12:40:23.126Z,23.45
2022-11-27T12:43:33.411Z,25.35
2022-11-27T12:46:46.217Z,22.87
2022-11-27T12:49:58.054Z,22.10
2022-11-27T12:53:31.003Z,22.30
2022-11-27T12:57:00.354Z,23.00
2022-11-27T13:00:20.434Z,21.50
2022-11-27T13:04:09.124Z,23.50
2022-11-27T13:07:22.254Z,24.57
2022-11-27T13:10:40.084Z,24.07
2022-11-27T13:13:57.126Z,21.95
2022-11-27T13:17:09.230Z,19.65
2022-11-27T13:20:35.999Z,18.87
2022-11-27T13:23:44.099Z,20.73
2022-11-27T13:27:00.983Z,19.87
2022-11-27T13:30:22.594Z,21.65
2022-11-27T13:33:39.044Z,23.10
2022-11-27T13:36:58.077Z,23.87
2022-11-27T13:40:32.066Z,31.20
2022-11-27T13:43:53.041Z,25.47
2022-11-27T13:47:12.963Z,22.98
2022-11-27T13:50:31.308Z,25.90
2022-11-27T13:53:39.513Z,24.87
2022-11-27T13:56:44.082Z,21.13
2022-11-27T14:00:08.193Z,17.90
2022-11-27T14:03:29.303Z,19.55
2022-11-27T14:06:45.093Z,20.73
2022-11-27T14:09:58.114Z,17.25
2022-11-27T14:13:06.054Z,19.03
2022-11-27T14:16:28.532Z,20.13
2022-11-27T14:19:40.307Z,20.95
2022-11-27T14:23:11.264Z,20.65
2022-11-27T14:26:16.602Z,18.83
2022-11-27T14:29:24.750Z,16.30
2022-11-27T14:32:36.311Z,16.63
2022-11-27T14:35:41.614Z,18.00
2022-11-27T14:38:51.949Z,17.75
2022-11-27T14:42:02.815Z,19.58
2022-11-27T14:45:20.122Z,18.03
2022-11-27T14:48:28.365Z,18.37
2022-11-27T14:51:37.573Z,18.00
2022-11-27T14:54:53.096Z,21.87
2022-11-27T14:58:02.079Z,18.27
2022-11-27T15:01:08.332Z,21.93
2022-11-27T15:04:44.072Z,18.23
2022-11-27T15:07:51.159Z,20.25
2022-11-27T15:10:59.275Z,18.80
2022-11-27T15:14:04.352Z,18.85
2022-11-27T15:17:19.190Z,16.40
2022-11-27T15:20:44.095Z,16.60
2022-11-27T15:23:49.955Z,16.65
2022-11-27T15:26:57.987Z,20.55
2022-11-27T15:30:16.103Z,23.92
2022-11-27T15:33:29.990Z,20.37
2022-11-27T15:37:09.117Z,20.50
2022-11-27T15:40:24.226Z,17.10
2022-11-27T15:43:29.253Z,16.90
2022-11-27T15:46:35.309Z,16.15
2022-11-27T15:49:44.621Z,16.30
2022-11-27T15:52:57.060Z,17.50
2022-11-27T15:56:01.265Z,17.70
2022-11-27T15:59:13.331Z,16.80
2022-11-27T16:02:18.610Z,15.23
2022-11-27T16:05:26.005Z,16.37
2022-11-27T16:08:39.069Z,16.33
2022-11-27T16:11:45.303Z,14.85
2022-11-27T16:14:51.065Z,14.23
2022-11-27T16:17:55.401Z,13.75
2022-11-27T16:21:15.959Z,15.20
2022-11-27T16:24:20.268Z,14.30
2022-11-27T16:27:30.467Z,14.35
2022-11-27T16:30:38.192Z,15.73
2022-11-27T16:33:43.032Z,25.70
2022-11-27T16:37:00.320Z,20.17
2022-11-27T16:40:09.053Z,21.57
2022-11-27T16:43:20.615Z,25.30
2022-11-27T16:46:28.585Z,18.80
2022-11-27T16:49:32.635Z,18.67
2022-11-27T16:52:41.308Z,17.53
2022-11-27T16:55:51.985Z,18.47
2022-11-27T16:59:15.538Z,15.20
2022-11-27T17:02:33.235Z,15.20
2022-11-27T17:05:48.787Z,15.02
2022-11-27T17:08:58.154Z,15.07
2022-11-27T17:12:05.062Z,16.03
2022-11-27T17:15:24.017Z,15.20
2022-11-27T17:18:36.866Z,13.45
2022-11-27T17:21:41.253Z,13.65
2022-11-27T17:24:56.199Z,12.13
2022-11-27T17:28:08.472Z,13.53
2022-11-27T17:31:21.548Z,12.50
2022-11-27T17:34:29.029Z,13.23
2022-11-27T17:37:39.344Z,11.63
2022-11-27T17:40:55.184Z,12.27
2022-11-27T17:43:59.877Z,11.10
2022-11-27T17:47:16.079Z,12.88
2022-11-27T17:50:30.304Z,13.20
2022-11-27T17:53:35.384Z,12.23
2022-11-27T17:56:52.090Z,14.40
2022-11-27T17:59:56.114Z,13.13
2022-11-27T18:03:07.357Z,15.82
2022-11-27T18:06:15.070Z,17.48
2022-11-27T18:09:27.010Z,10.45
2022-11-27T18:12:41.946Z,10.47
2022-11-27T18:15:59.007Z,9.73
2022-11-27T18:19:14.330Z,10.27
2022-11-27T18:22:23.047Z,10.13
2022-11-27T18:25:29.127Z,10.85
2022-11-27T18:28:34.170Z,11.87
2022-11-27T18:31:41.202Z,13.40
2022-11-27T18:34:52.170Z,15.30
2022-11-27T18:38:11.053Z,13.10
2022-11-27T18:41:32.018Z,13.43
2022-11-27T18:44:45.031Z,14.33
2022-11-27T18:47:49.493Z,12.57
2022-11-27T18:51:10.990Z,11.68
2022-11-27T18:54:31.309Z,14.10
2022-11-27T18:57:35.512Z,14.87
2022-11-27T19:00:46.194Z,14.77
2022-11-27T19:03:57.972Z,14.50
2022-11-27T19:07:11.065Z,13.32
2022-11-27T19:10:25.952Z,13.38
2022-11-27T19:13:32.785Z,12.32
2022-11-27T19:16:45.547Z,13.03
2022-11-27T19:19:59.127Z,12.50
2022-11-27T19:23:12.956Z,11.70
2022-11-27T19:26:30.599Z,12.93
2022-11-27T19:29:36.037Z,14.93
2022-11-27T19:32:42.076Z,16.40
2022-11-27T19:35:55.966Z,15.33
2022-11-27T19:39:14.924Z,13.55
2022-11-27T19:42:20.073Z,14.90
2022-11-27T19:45:29.326Z,13.55
2022-11-27T19:48:39.436Z,13.77
2022-11-27T19:51:51.170Z,15.73
2022-11-27T19:54:57.044Z,16.65
2022-11-27T19:58:14.911Z,16.10
2022-11-27T20:01:20.397Z,13.95
2022-11-27T20:04:25.651Z,12.83
2022-11-27T20:07:41.062Z,14.47
2022-11-27T20:10:51.632Z,14.10
2022-11-27T20:14:05.955Z,14.48
2022-11-27T20:17:11.866Z,14.35
2022-11-27T20:20:16.916Z,14.07
2022-11-27T20:23:19.972Z,14.60
2022-11-27T20:26:42.795Z,14.85
2022-11-27T20:29:56.807Z,14.73
2022-11-27T20:33:07.505Z,15.10
2022-11-27T20:36:14.138Z,15.73
2022-11-27T20:39:29.005Z,15.27
2022-11-27T20:42:42.074Z,16.35
2022-11-27T20:45:53.135Z,16.02
2022-11-27T20:48:59.027Z,14.18
2022-11-27T20:52:04.988Z,14.67
2022-11-27T20:55:09.993Z,15.90
2022-11-27T20:58:18.992Z,15.32
2022-11-27T21:01:39.048Z,15.98
2022-11-27T21:04:48.962Z,15.18
2022-11-27T21:07:57.185Z,15.33
2022-11-27T21:11:18.375Z,15.40
2022-11-27T21:14:23.331Z,15.43
2022-11-27T21:17:28.286Z,15.15
2022-11-27T21:20:33.099Z,16.77
2022-11-27T21:23:44.953Z,16.73
2022-11-27T21:26:49.982Z,16.30
2022-11-27T21:29:54.013Z,15.88
2022-11-27T21:33:01.417Z,15.43
2022-11-27T21:36:05.308Z,17.23
2022-11-27T21:39:23.926Z,16.27
2022-11-27T21:42:28.538Z,15.40
2022-11-27T21:45:39.125Z,16.40
2022-11-27T21:48:51.761Z,15.00
2022-11-27T21:51:56.475Z,15.63
2022-11-27T21:55:00.051Z,16.33
2022-11-27T21:58:03.798Z,14.63
2022-11-27T22:01:13.598Z,16.30
2022-11-27T22:04:17.978Z,15.80
2022-11-27T22:07:22.271Z,16.73
2022-11-27T22:10:25.488Z,14.40
2022-11-27T22:13:30.070Z,15.73
2022-11-27T22:16:39.870Z,16.95
2022-11-27T22:19:47.941Z,17.15
2022-11-27T22:22:51.126Z,15.52
2022-11-27T22:25:55.991Z,15.80
2022-11-27T22:29:00.438Z,14.07
2022-11-27T22:32:03.665Z,15.13
2022-11-27T22:35:08.122Z,14.93
2022-11-27T22:38:10.644Z,13.30
2022-11-27T22:41:14.835Z,15.50
2022-11-27T22:44:19.421Z,13.10
2022-11-27T22:47:24.205Z,14.77
2022-11-27T22:50:30.899Z,13.77
2022-11-27T22:53:35.527Z,13.55
2022-11-27T22:56:39.285Z,13.70
2022-11-27T22:59:42.918Z,14.57
2022-11-27T23:02:45.915Z,15.57
2022-11-27T23:05:49.160Z,16.05
2022-11-27T23:08:53.135Z,16.45
2022-11-27T23:12:00.688Z,18.27
2022-11-27T23:15:04.039Z,15.13
2022-11-27T23:18:09.054Z,16.27
2022-11-27T23:21:16.674Z,14.25
2022-11-27T23:24:19.990Z,14.32
2022-11-27T23:27:23.058Z,15.87
2022-11-27T23:30:26.059Z,25.07
2022-11-27T23:33:30.037Z,21.60
2022-11-27T23:36:34.370Z,17.73
2022-11-27T23:39:40.895Z,19.37
2022-11-27T23:42:43.685Z,15.30
2022-11-27T23:45:47.553Z,14.90
2022-11-27T23:48:50.723Z,16.40
2022-11-27T23:51:54.544Z,13.73
2022-11-27T23:54:57.583Z,13.60
2022-11-27T23:58:00.179Z,12.07
